Time;durP1;ratioP1;P1;durP2;ratioP2;P2;SDS_P1;SDS_P2;PMS_P1;PMS_P2;Temp;Humidity;BMP_temperature;BMP_pressure;BME280_temperature;BME280_humidity;BME280_pressure;Samples;Min_cycle;Max_cycle;Signal;HPM_P1;HPM_P2
2023/11/29 00:00:17;;;;;;;10.70;5.20;;;;;;;3.05;100.00;99949.56;109266;1253;59651;-55
2023/11/29 00:02:45;;;;;;;9.30;4.80;;;;;;;3.06;100.00;99944.67;109327;1253;58982;-58
2023/11/29 00:05:13;;;;;;;7.80;4.80;;;;;;;3.07;100.00;99942.86;109241;1253;73921;-55
2023/11/29 00:07:50;;;;;;;10.70;4.80;;;;;;;3.07;100.00;99937.30;109299;1253;65244;-55
2023/11/29 00:10:17;;;;;;;10.20;4.60;;;;;;;3.10;100.00;99933.98;109278;1253;72721;-55
2023/11/29 00:12:45;;;;;;;9.10;4.60;;;;;;;3.12;100.00;99935.20;109427;1253;58866;-57
2023/11/29 00:15:13;;;;;;;9.10;4.70;;;;;;;3.15;100.00;99931.11;109258;1253;60514;-54
2023/11/29 00:17:40;;;;;;;9.70;4.40;;;;;;;3.21;100.00;99923.02;109339;1253;73919;-55
2023/11/29 00:20:08;;;;;;;7.80;4.10;;;;;;;3.25;100.00;99918.73;109368;1253;66887;-55
2023/11/29 00:22:36;;;;;;;6.00;3.70;;;;;;;3.28;100.00;99912.71;109313;1252;71852;-56
2023/11/29 00:25:04;;;;;;;8.10;3.60;;;;;;;3.30;100.00;99912.20;109259;1253;60130;-55
2023/11/29 00:27:31;;;;;;;7.40;4.30;;;;;;;3.32;100.00;99914.27;109325;1253;60095;-55
2023/11/29 00:29:59;;;;;;;5.90;4.00;;;;;;;3.31;100.00;99904.50;109388;1253;72445;-55
2023/11/29 00:32:27;;;;;;;7.50;3.50;;;;;;;3.32;100.00;99897.73;109330;1253;65714;-55
2023/11/29 00:34:55;;;;;;;5.90;3.20;;;;;;;3.33;100.00;99893.34;109259;1255;71454;-58
2023/11/29 00:37:23;;;;;;;6.10;3.30;;;;;;;3.34;100.00;99886.55;109303;1253;60772;-55
2023/11/29 00:39:50;;;;;;;6.60;3.70;;;;;;;3.33;100.00;99890.45;109280;1253;58798;-55
2023/11/29 00:42:18;;;;;;;5.70;3.20;;;;;;;3.33;100.00;99880.69;109310;1253;73953;-55
2023/11/29 00:44:46;;;;;;;7.20;3.30;;;;;;;3.34;100.00;99878.14;109397;1252;65635;-54
2023/11/29 00:47:14;;;;;;;5.90;3.30;;;;;;;3.36;100.00;99877.56;109204;1253;72181;-55
2023/11/29 00:49:41;;;;;;;6.20;3.40;;;;;;;3.34;100.00;99872.30;109311;1253;60051;-55
2023/11/29 00:52:09;;;;;;;6.20;3.20;;;;;;;3.32;100.00;99866.96;109351;1252;60102;-55
2023/11/29 00:54:37;;;;;;;5.60;3.10;;;;;;;3.30;100.00;99863.58;109385;1253;73920;-54
2023/11/29 00:57:04;;;;;;;9.50;4.00;;;;;;;3.28;100.00;99858.61;109372;1253;67123;-59
2023/11/29 00:59:32;;;;;;;7.00;4.00;;;;;;;3.25;100.00;99853.24;109244;1253;71569;-55
2023/11/29 01:02:00;;;;;;;7.60;4.60;;;;;;;3.23;100.00;99849.73;109329;1253;59111;-55
2023/11/29 01:04:28;;;;;;;7.20;4.40;;;;;;;3.21;100.00;99842.80;109326;1253;60206;-56
2023/11/29 01:06:56;;;;;;;8.50;4.40;;;;;;;3.19;100.00;99840.98;109366;1252;73984;-55
2023/11/29 01:09:23;;;;;;;10.50;4.70;;;;;;;3.17;100.00;99842.48;109329;1253;66944;-56
2023/11/29 01:11:51;;;;;;;9.50;4.70;;;;;;;3.16;100.00;99839.29;109393;1253;73372;-55
2023/11/29 01:14:18;;;;;;;7.90;4.80;;;;;;;3.14;100.00;99836.45;109332;1253;60960;-56
2023/11/29 01:16:46;;;;;;;7.90;4.20;;;;;;;3.14;100.00;99833.66;109406;1253;58893;-55
2023/11/29 01:19:14;;;;;;;10.80;4.60;;;;;;;3.14;100.00;99827.96;109223;1253;75909;-56
2023/11/29 01:21:41;;;;;;;8.30;4.80;;;;;;;3.14;100.00;99824.38;109313;1253;65628;-56
2023/11/29 01:24:09;;;;;;;9.30;4.60;;;;;;;3.17;100.00;99820.55;109419;1252;71096;-56
2023/11/29 01:26:37;;;;;;;9.80;4.80;;;;;;;3.15;100.00;99812.40;109386;1253;60145;-55
2023/11/29 01:29:05;;;;;;;9.30;4.80;;;;;;;3.15;100.00;99813.30;109255;1253;60382;-56
2023/11/29 01:31:34;;;;;;;10.00;5.10;;;;;;;3.15;100.00;99812.34;109267;1253;73936;-55
2023/11/29 01:34:03;;;;;;;9.70;5.40;;;;;;;3.13;100.00;99814.31;109332;1253;65798;-55
2023/11/29 01:36:31;;;;;;;8.60;4.60;;;;;;;3.13;100.00;99808.66;109328;1253;71424;-55
2023/11/29 01:38:58;;;;;;;11.00;4.50;;;;;;;3.13;100.00;99808.38;109206;1253;59709;-55
2023/11/29 01:41:26;;;;;;;10.50;4.70;;;;;;;3.14;100.00;99818.52;109338;1253;58842;-59
2023/11/29 01:43:55;;;;;;;9.20;4.70;;;;;;;3.16;100.00;99815.27;109205;1253;74827;-55
2023/11/29 01:46:22;;;;;;;11.10;4.90;;;;;;;3.19;100.00;99813.52;109433;1253;67409;-55
2023/11/29 01:48:50;;;;;;;7.80;4.40;;;;;;;3.21;100.00;99809.35;109307;1253;72776;-55
2023/11/29 01:51:18;;;;;;;6.50;3.90;;;;;;;3.23;100.00;99815.71;109181;1253;60972;-55
2023/11/29 01:53:46;;;;;;;8.10;4.20;;;;;;;3.24;100.00;99813.48;109289;1253;60085;-55
2023/11/29 01:56:16;;;;;;;7.70;4.70;;;;;;;3.28;100.00;99805.90;109259;1252;73922;-56
2023/11/29 01:58:44;;;;;;;7.00;4.60;;;;;;;3.28;100.00;99803.52;109254;1253;65696;-55
2023/11/29 02:01:13;;;;;;;11.30;5.30;;;;;;;3.28;100.00;99792.33;109241;1254;71859;-55
2023/11/29 02:03:41;;;;;;;9.20;4.00;;;;;;;3.29;100.00;99790.05;109170;1253;60151;-58
2023/11/29 02:06:09;;;;;;;7.70;4.10;;;;;;;3.29;100.00;99788.80;109438;1253;60052;-55
2023/11/29 02:08:37;;;;;;;7.20;3.60;;;;;;;3.30;100.00;99785.08;109260;1253;71627;-55
2023/11/29 02:11:05;;;;;;;5.50;3.80;;;;;;;3.29;100.00;99787.73;109241;1253;66972;-55
2023/11/29 02:13:32;;;;;;;10.70;4.40;;;;;;;3.29;100.00;99787.63;109206;1253;72732;-55
2023/11/29 02:16:00;;;;;;;8.60;4.70;;;;;;;3.30;100.00;99794.59;109175;1253;58809;-55
2023/11/29 02:18:28;;;;;;;8.30;4.90;;;;;;;3.31;100.00;99796.67;109303;1253;60205;-55
2023/11/29 02:20:55;;;;;;;10.90;4.60;;;;;;;3.33;100.00;99798.77;109316;1253;73947;-54
2023/11/29 02:23:30;;;;;;;8.70;4.10;;;;;;;3.34;100.00;99796.79;109306;1253;66427;-56
2023/11/29 02:25:58;;;;;;;7.60;4.50;;;;;;;3.34;100.00;99806.04;109232;1253;71828;-55
2023/11/29 02:28:25;;;;;;;11.50;5.00;;;;;;;3.35;100.00;99808.17;109330;1253;59730;-55
2023/11/29 02:30:53;;;;;;;9.30;4.00;;;;;;;3.36;100.00;99804.14;109309;1253;58847;-55
2023/11/29 02:33:21;;;;;;;7.70;4.30;;;;;;;3.37;100.00;99798.33;109231;1256;72363;-55
2023/11/29 02:35:48;;;;;;;11.90;4.50;;;;;;;3.39;100.00;99788.56;109351;1253;66786;-55
2023/11/29 02:38:17;;;;;;;8.90;4.30;;;;;;;3.40;100.00;99783.23;109267;1253;71953;-55
2023/11/29 02:40:44;;;;;;;8.70;4.60;;;;;;;3.44;100.00;99784.63;109293;1253;59627;-55
2023/11/29 02:43:12;;;;;;;6.10;3.40;;;;;;;3.46;100.00;99779.57;109311;1253;60266;-55
2023/11/29 02:45:40;;;;;;;7.00;3.50;;;;;;;3.48;100.00;99769.63;109300;1253;73991;-54
2023/11/29 02:48:07;;;;;;;6.30;3.40;;;;;;;3.49;100.00;99770.38;109292;1253;67092;-56
2023/11/29 02:50:35;;;;;;;7.40;4.10;;;;;;;3.51;100.00;99768.11;109240;1253;71161;-54
2023/11/29 02:53:03;;;;;;;7.00;3.50;;;;;;;3.55;100.00;99764.27;109283;1253;59915;-57
2023/11/29 02:55:30;;;;;;;14.50;4.50;;;;;;;3.58;100.00;99763.48;109347;1253;58863;-55
2023/11/29 02:57:58;;;;;;;6.30;3.10;;;;;;;3.60;100.00;99754.48;109324;1253;72944;-54
2023/11/29 03:00:26;;;;;;;5.90;2.90;;;;;;;3.65;100.00;99755.05;109341;1253;66970;-56
2023/11/29 03:02:53;;;;;;;6.60;3.20;;;;;;;3.69;100.00;99748.21;109321;1253;73468;-55
2023/11/29 03:05:21;;;;;;;7.80;3.70;;;;;;;3.69;100.00;99745.63;109234;1253;58199;-55
2023/11/29 03:07:49;;;;;;;6.20;2.80;;;;;;;3.71;100.00;99742.47;109318;1253;59128;-55
2023/11/29 03:10:16;;;;;;;8.80;4.00;;;;;;;3.73;100.00;99745.27;109295;1253;73956;-55
2023/11/29 03:12:45;;;;;;;5.80;3.10;;;;;;;3.74;100.00;99740.98;109311;1253;66875;-55
2023/11/29 03:15:14;;;;;;;6.80;3.50;;;;;;;3.75;100.00;99743.14;109224;1253;72677;-54
2023/11/29 03:17:41;;;;;;;6.00;3.30;;;;;;;3.75;100.00;99737.98;109284;1253;59683;-55
2023/11/29 03:20:09;;;;;;;6.80;3.20;;;;;;;3.75;100.00;99726.13;109186;1253;60234;-55
2023/11/29 03:22:37;;;;;;;6.30;3.30;;;;;;;3.75;100.00;99710.09;109299;1253;74440;-54
2023/11/29 03:25:05;;;;;;;6.50;3.70;;;;;;;3.77;100.00;99711.10;109319;1253;67476;-55
2023/11/29 03:27:33;;;;;;;7.20;3.30;;;;;;;3.77;100.00;99702.52;109175;1253;71432;-54
2023/11/29 03:30:00;;;;;;;5.20;3.10;;;;;;;3.77;100.00;99710.33;109270;1253;59284;-58
2023/11/29 03:32:28;;;;;;;7.30;3.10;;;;;;;3.77;100.00;99709.78;109286;1253;58787;-54
2023/11/29 03:34:56;;;;;;;8.10;3.20;;;;;;;3.79;100.00;99709.34;109290;1253;72952;-54
2023/11/29 03:37:23;;;;;;;9.00;3.10;;;;;;;3.80;100.00;99708.44;109354;1253;67593;-55
2023/11/29 03:39:51;;;;;;;8.10;3.80;;;;;;;3.81;100.00;99701.29;109191;1253;70622;-54
2023/11/29 03:42:18;;;;;;;6.50;3.10;;;;;;;3.85;100.00;99702.92;109278;1253;61034;-58
2023/11/29 03:44:46;;;;;;;6.20;3.00;;;;;;;3.87;100.00;99697.72;109273;1253;60207;-54
2023/11/29 03:47:14;;;;;;;8.80;3.20;;;;;;;3.88;100.00;99689.38;109291;1253;73871;-55
2023/11/29 03:49:41;;;;;;;8.20;3.70;;;;;;;3.92;100.00;99687.84;109310;1253;66971;-54
2023/11/29 03:52:09;;;;;;;7.50;3.30;;;;;;;3.93;100.00;99689.45;109323;1253;72738;-55
2023/11/29 03:54:37;;;;;;;5.90;2.80;;;;;;;3.95;100.00;99675.45;109145;1256;59373;-54
2023/11/29 03:57:05;;;;;;;5.40;2.90;;;;;;;3.98;100.00;99671.66;109360;1253;60290;-55
2023/11/29 03:59:35;;;;;;;5.50;2.90;;;;;;;4.01;100.00;99670.05;109296;1252;72592;-54
2023/11/29 04:02:03;;;;;;;6.10;2.60;;;;;;;4.02;100.00;99668.17;109346;1253;67393;-54
2023/11/29 04:04:31;;;;;;;7.20;3.10;;;;;;;4.05;100.00;99668.05;109214;1254;72716;-55
2023/11/29 04:07:02;;;;;;;5.00;2.30;;;;;;;4.07;100.00;99657.23;109294;1253;59941;-54
2023/11/29 04:09:30;;;;;;;5.80;2.60;;;;;;;4.13;100.00;99645.80;109224;1253;60314;-54
2023/11/29 04:11:59;;;;;;;4.90;2.60;;;;;;;4.19;100.00;99638.85;109356;1252;72540;-54
2023/11/29 04:14:26;;;;;;;5.40;2.20;;;;;;;4.23;100.00;99638.41;109302;1253;67242;-58
2023/11/29 04:16:54;;;;;;;4.70;2.60;;;;;;;4.25;100.00;99631.96;109381;1252;72664;-54
2023/11/29 04:19:22;;;;;;;4.60;1.80;;;;;;;4.27;100.00;99634.73;109165;1253;58823;-54
2023/11/29 04:21:50;;;;;;;3.40;1.70;;;;;;;4.29;100.00;99611.11;109324;1253;58734;-54
2023/11/29 04:24:17;;;;;;;3.90;1.90;;;;;;;4.30;100.00;99603.60;109189;1252;73881;-54
2023/11/29 04:26:45;;;;;;;3.80;1.80;;;;;;;4.31;100.00;99601.96;109274;1253;65918;-55
2023/11/29 04:29:13;;;;;;;4.50;1.80;;;;;;;4.31;100.00;99596.99;109325;1253;72758;-54
2023/11/29 04:31:41;;;;;;;3.60;1.60;;;;;;;4.34;100.00;99585.00;109389;1253;58188;-54
2023/11/29 04:34:09;;;;;;;4.10;1.80;;;;;;;4.36;100.00;99582.17;109385;1253;58815;-54
2023/11/29 04:36:55;;;;;;;5.20;1.80;;;;;;;4.39;100.00;99575.52;109373;1252;74821;-54
2023/11/29 04:39:23;;;;;;;3.80;1.60;;;;;;;4.40;100.00;99568.19;109377;1257;66895;-55
2023/11/29 04:41:50;;;;;;;4.80;1.70;;;;;;;4.39;100.00;99561.20;109370;1253;72743;-54
2023/11/29 04:44:18;;;;;;;3.80;1.80;;;;;;;4.38;100.00;99560.85;109338;1253;58264;-54
2023/11/29 04:46:46;;;;;;;4.60;2.00;;;;;;;4.38;100.00;99559.91;109257;1253;60227;-57
2023/11/29 04:49:14;;;;;;;5.20;1.70;;;;;;;4.41;100.00;99552.46;109360;1253;72017;-54
2023/11/29 04:51:42;;;;;;;4.80;1.70;;;;;;;4.41;100.00;99549.30;109382;1253;67453;-54
2023/11/29 04:54:09;;;;;;;2.70;1.50;;;;;;;4.45;100.00;99539.24;109354;1253;72747;-55
2023/11/29 04:56:37;;;;;;;4.00;1.40;;;;;;;4.51;100.00;99531.89;109292;1253;59280;-57
2023/11/29 04:59:05;;;;;;;4.10;1.60;;;;;;;4.53;100.00;99531.36;109309;1253;58856;-54
2023/11/29 05:01:33;;;;;;;4.10;1.40;;;;;;;4.51;100.00;99524.83;109339;1253;73918;-54
2023/11/29 05:04:01;;;;;;;4.00;1.70;;;;;;;4.50;100.00;99525.11;109377;1253;66950;-56
2023/11/29 05:06:28;;;;;;;4.20;1.90;;;;;;;4.51;100.00;99516.81;109308;1253;72690;-60
2023/11/29 05:08:57;;;;;;;4.70;1.60;;;;;;;4.51;100.00;99525.57;109346;1253;58193;-56
2023/11/29 05:11:25;;;;;;;2.50;1.30;;;;;;;4.51;100.00;99514.15;109371;1253;58840;-56
2023/11/29 05:13:53;;;;;;;4.20;1.90;;;;;;;4.51;100.00;99510.73;109228;1253;72858;-57
2023/11/29 05:16:20;;;;;;;4.20;1.80;;;;;;;4.51;100.00;99510.79;109378;1253;65801;-60
2023/11/29 05:18:48;;;;;;;3.10;1.60;;;;;;;4.48;100.00;99507.85;109319;1253;71634;-54
2023/11/29 05:21:17;;;;;;;3.30;1.30;;;;;;;4.46;100.00;99508.73;109339;1254;60955;-54
2023/11/29 05:23:45;;;;;;;3.90;1.40;;;;;;;4.44;100.00;99514.76;109370;1252;60098;-55
2023/11/29 05:26:14;;;;;;;3.20;2.00;;;;;;;4.42;100.00;99502.23;109417;1252;73880;-54
2023/11/29 05:28:42;;;;;;;2.70;1.70;;;;;;;4.40;100.00;99505.17;109368;1253;67612;-54
2023/11/29 05:31:09;;;;;;;3.30;1.70;;;;;;;4.40;100.00;99500.77;109373;1253;72003;-56
2023/11/29 05:33:37;;;;;;;3.50;1.50;;;;;;;4.42;100.00;99498.52;109326;1253;59693;-56
2023/11/29 05:36:05;;;;;;;4.30;1.90;;;;;;;4.43;100.00;99498.49;109375;1254;58844;-55
2023/11/29 05:38:33;;;;;;;3.50;1.60;;;;;;;4.45;100.00;99494.17;109332;1252;73009;-55
2023/11/29 05:41:01;;;;;;;2.50;1.20;;;;;;;4.45;100.00;99490.69;109435;1252;65968;-54
2023/11/29 05:43:28;;;;;;;4.30;1.60;;;;;;;4.48;100.00;99481.98;109352;1252;72347;-54
2023/11/29 05:45:56;;;;;;;3.20;1.30;;;;;;;4.52;100.00;99478.85;109390;1253;60944;-55
2023/11/29 05:48:24;;;;;;;3.50;1.80;;;;;;;4.53;100.00;99475.66;109358;1253;60131;-57
2023/11/29 05:50:51;;;;;;;2.70;1.60;;;;;;;4.55;100.00;99475.72;109377;1253;74045;-55
2023/11/29 05:53:20;;;;;;;3.80;1.60;;;;;;;4.57;100.00;99488.97;109353;1254;65958;-56
2023/11/29 05:55:48;;;;;;;3.30;1.50;;;;;;;4.59;100.00;99487.33;109336;1254;72734;-56
2023/11/29 05:58:15;;;;;;;5.00;1.50;;;;;;;4.62;100.00;99480.45;109352;1253;58578;-57
2023/11/29 06:00:43;;;;;;;4.80;1.60;;;;;;;4.64;100.00;99473.41;109338;1253;58843;-55
2023/11/29 06:03:10;;;;;;;3.10;1.50;;;;;;;4.66;100.00;99471.83;109375;1253;72724;-57
2023/11/29 06:05:38;;;;;;;2.40;1.00;;;;;;;4.68;100.00;99464.89;109369;1252;66941;-55
2023/11/29 06:08:06;;;;;;;3.90;1.40;;;;;;;4.70;100.00;99458.88;109476;1253;71406;-54
2023/11/29 06:10:34;;;;;;;5.00;2.70;;;;;;;4.69;100.00;99450.20;109304;1253;59898;-55
2023/11/29 06:13:03;;;;;;;5.80;2.70;;;;;;;4.69;100.00;99448.13;109326;1252;58814;-56
2023/11/29 06:15:31;;;;;;;7.80;5.20;;;;;;;4.70;100.00;99433.25;109367;1252;72617;-54
2023/11/29 06:18:00;;;;;;;43.90;31.00;;;;;;;4.70;100.00;99436.32;109392;1252;66936;-54
2023/11/29 06:20:28;;;;;;;29.10;22.40;;;;;;;4.70;100.00;99439.03;109283;1254;72763;-55
2023/11/29 06:22:56;;;;;;;36.00;28.50;;;;;;;4.72;100.00;99430.10;109303;1253;61457;-54
2023/11/29 06:25:23;;;;;;;22.40;19.70;;;;;;;4.73;100.00;99423.38;109348;1253;58205;-56
2023/11/29 06:27:51;;;;;;;17.80;16.10;;;;;;;4.75;100.00;99424.61;109293;1258;73951;-54
2023/11/29 06:30:20;;;;;;;12.00;10.90;;;;;;;4.75;100.00;99422.99;109357;1253;66941;-54
2023/11/29 06:32:47;;;;;;;4.80;3.30;;;;;;;4.76;100.00;99414.62;109323;1254;72722;-55
2023/11/29 06:35:16;;;;;;;3.00;2.00;;;;;;;4.76;100.00;99415.17;109309;1254;60967;-54
2023/11/29 06:37:47;;;;;;;3.10;1.60;;;;;;;4.77;100.00;99408.75;109401;1253;58755;-55
2023/11/29 06:40:23;;;;;;;6.20;1.80;;;;;;;4.77;100.00;99405.27;109356;1252;73753;-54
2023/11/29 06:42:50;;;;;;;4.30;1.60;;;;;;;4.77;100.00;99404.36;109312;1253;67487;-57
2023/11/29 06:45:19;;;;;;;2.60;1.40;;;;;;;4.75;100.00;99399.63;109375;1253;72627;-56
2023/11/29 06:47:47;;;;;;;4.70;1.50;;;;;;;4.77;100.00;99398.55;109367;1254;59432;-55
2023/11/29 06:50:15;;;;;;;2.80;1.40;;;;;;;4.78;100.00;99396.14;109329;1253;58305;-54
2023/11/29 06:52:44;;;;;;;4.20;1.70;;;;;;;4.79;100.00;99397.41;109325;1252;72669;-55
2023/11/29 06:55:14;;;;;;;4.10;1.60;;;;;;;4.80;100.00;99397.34;109326;1253;66960;-54
2023/11/29 06:57:43;;;;;;;3.80;1.60;;;;;;;4.81;100.00;99399.95;109335;1254;71445;-55
2023/11/29 07:00:11;;;;;;;2.80;1.50;;;;;;;4.83;100.00;99393.23;109333;1254;58162;-55
2023/11/29 07:02:39;;;;;;;3.70;1.70;;;;;;;4.85;100.00;99393.81;109298;1253;60069;-58
2023/11/29 07:05:08;;;;;;;8.90;5.30;;;;;;;4.92;100.00;99391.09;109341;1253;73269;-54
2023/11/29 07:07:36;;;;;;;6.20;4.30;;;;;;;4.98;100.00;99383.51;109344;1253;65355;-56
2023/11/29 07:10:05;;;;;;;5.70;3.60;;;;;;;5.03;100.00;99382.38;109311;1252;71914;-55
2023/11/29 07:12:32;;;;;;;4.30;2.60;;;;;;;5.09;100.00;99367.62;109276;1253;58172;-55
2023/11/29 07:15:00;;;;;;;11.40;6.80;;;;;;;5.14;100.00;99360.39;109330;1257;60033;-55
2023/11/29 07:17:28;;;;;;;3.70;2.00;;;;;;;5.17;100.00;99357.48;109339;1254;73934;-55
2023/11/29 07:19:56;;;;;;;3.80;1.20;;;;;;;5.20;100.00;99340.05;109394;1253;66960;-55
2023/11/29 07:22:24;;;;;;;3.90;1.30;;;;;;;5.24;100.00;99338.93;109272;1253;71494;-59
2023/11/29 07:24:52;;;;;;;3.10;1.20;;;;;;;5.25;100.00;99334.50;109308;1253;59278;-55
2023/11/29 07:27:20;;;;;;;4.40;1.50;;;;;;;5.24;100.00;99326.85;109419;1253;59179;-56
2023/11/29 07:29:47;;;;;;;2.90;1.20;;;;;;;5.23;100.00;99318.56;109405;1253;72720;-56
2023/11/29 07:32:15;;;;;;;3.50;2.00;;;;;;;5.21;100.00;99310.85;109393;1252;65877;-54
2023/11/29 07:34:46;;;;;;;3.10;1.30;;;;;;;5.23;100.00;99307.58;109313;1253;72183;-54
2023/11/29 07:37:18;;;;;;;3.30;1.20;;;;;;;5.21;100.00;99298.01;109359;1253;58845;-55
2023/11/29 07:39:46;;;;;;;3.20;1.10;;;;;;;5.18;100.00;99291.20;109381;1253;60101;-55
2023/11/29 07:42:14;;;;;;;6.90;3.90;;;;;;;5.16;100.00;99282.98;109379;1253;73019;-55
2023/11/29 07:44:41;;;;;;;14.90;7.30;;;;;;;5.17;100.00;99277.07;109299;1252;65667;-54
2023/11/29 07:47:11;;;;;;;18.90;11.00;;;;;;;5.17;100.00;99270.16;109374;1252;72763;-55
2023/11/29 07:49:38;;;;;;;6.30;2.30;;;;;;;5.17;100.00;99270.12;109342;1258;58204;-55
2023/11/29 07:52:06;;;;;;;8.00;4.20;;;;;;;5.16;100.00;99262.23;109377;1253;58780;-54
2023/11/29 07:54:33;;;;;;;9.30;5.10;;;;;;;5.13;100.00;99248.84;109352;1253;73928;-59
2023/11/29 07:57:01;;;;;;;5.30;2.60;;;;;;;5.09;100.00;99248.45;109342;1258;67205;-55
2023/11/29 07:59:29;;;;;;;4.50;2.50;;;;;;;4.99;100.00;99244.32;109331;1253;70738;-54
2023/11/29 08:01:57;;;;;;;5.60;2.20;;;;;;;4.88;100.00;99237.61;109343;1253;59730;-54
2023/11/29 08:04:25;;;;;;;5.50;2.90;;;;;;;4.77;100.00;99228.31;109173;1253;59467;-55
2023/11/29 08:06:53;;;;;;;7.20;3.90;;;;;;;4.71;100.00;99212.99;109358;1253;72623;-59
2023/11/29 08:09:20;;;;;;;5.00;2.50;;;;;;;4.71;100.00;99208.91;109450;1253;66040;-55
2023/11/29 08:11:48;;;;;;;5.10;2.30;;;;;;;4.71;100.00;99201.61;109298;1253;73065;-55
2023/11/29 08:14:16;;;;;;;5.10;2.60;;;;;;;4.74;100.00;99192.67;109367;1253;59772;-56
2023/11/29 08:16:43;;;;;;;7.90;3.50;;;;;;;4.80;100.00;99188.54;109323;1258;59062;-56
2023/11/29 08:19:11;;;;;;;8.70;3.10;;;;;;;4.88;100.00;99190.39;109362;1253;74306;-54
2023/11/29 08:21:39;;;;;;;10.90;6.60;;;;;;;4.95;100.00;99168.13;109362;1253;65795;-56
2023/11/29 08:24:06;;;;;;;3.70;2.30;;;;;;;5.02;100.00;99151.85;109402;1253;72407;-57
2023/11/29 08:26:35;;;;;;;3.90;1.70;;;;;;;5.05;100.00;99152.81;109357;1253;59426;-55
2023/11/29 08:29:02;;;;;;;3.20;1.50;;;;;;;5.09;100.00;99149.91;109284;1253;59147;-56
2023/11/29 08:31:30;;;;;;;4.50;1.50;;;;;;;5.15;100.00;99138.98;109346;1253;73861;-56
2023/11/29 08:33:57;;;;;;;4.10;1.80;;;;;;;5.21;100.00;99132.75;109351;1253;65386;-55
2023/11/29 08:36:25;;;;;;;3.20;1.20;;;;;;;5.26;100.00;99122.33;109320;1258;72749;-55
2023/11/29 08:38:54;;;;;;;5.10;2.10;;;;;;;5.31;100.00;99113.02;109347;1253;59411;-55
2023/11/29 08:41:22;;;;;;;3.00;1.60;;;;;;;5.36;100.00;99112.42;109371;1253;60299;-55
2023/11/29 08:43:49;;;;;;;6.90;2.80;;;;;;;5.42;100.00;99106.02;109353;1253;73955;-55
2023/11/29 08:46:17;;;;;;;2.90;1.40;;;;;;;5.49;100.00;99108.21;109356;1253;66992;-55
2023/11/29 08:48:45;;;;;;;3.30;1.10;;;;;;;5.55;100.00;99096.84;109350;1253;72800;-60
2023/11/29 08:51:16;;;;;;;2.50;1.20;;;;;;;5.60;100.00;99091.05;109335;1252;59382;-55
2023/11/29 08:53:44;;;;;;;3.50;1.60;;;;;;;5.66;100.00;99085.57;109380;1253;58826;-55
2023/11/29 08:56:14;;;;;;;4.80;1.80;;;;;;;5.68;100.00;99077.00;109384;1252;74009;-55
2023/11/29 08:58:44;;;;;;;4.40;2.50;;;;;;;5.69;100.00;99066.69;109361;1253;69273;-59
2023/11/29 09:01:13;;;;;;;15.10;7.40;;;;;;;5.69;100.00;99059.85;109378;1253;72773;-55
2023/11/29 09:03:41;;;;;;;5.80;3.20;;;;;;;5.69;100.00;99048.98;109296;1253;59723;-56
2023/11/29 09:06:09;;;;;;;7.90;5.00;;;;;;;5.70;100.00;99042.11;109171;1255;61444;-55
2023/11/29 09:08:37;;;;;;;8.90;4.80;;;;;;;5.73;100.00;99042.53;109289;1253;74799;-59
2023/11/29 09:11:06;;;;;;;9.60;5.70;;;;;;;5.74;100.00;99037.54;109376;1253;68118;-55
2023/11/29 09:13:34;;;;;;;3.90;1.80;;;;;;;5.74;100.00;99050.27;109343;1253;71880;-55
2023/11/29 09:16:05;;;;;;;6.30;3.70;;;;;;;5.74;100.00;99049.20;109311;1254;60974;-55
2023/11/29 09:18:36;;;;;;;5.60;3.30;;;;;;;5.77;100.00;99030.61;109344;1253;60241;-58
2023/11/29 09:21:05;;;;;;;3.80;2.00;;;;;;;5.77;100.00;99030.46;109375;1253;75137;-55
2023/11/29 09:23:32;;;;;;;3.90;2.00;;;;;;;5.76;100.00;99035.35;109377;1253;68727;-55
2023/11/29 09:26:01;;;;;;;3.30;1.40;;;;;;;5.80;100.00;99033.35;109376;1253;74794;-55
2023/11/29 09:28:29;;;;;;;5.20;2.20;;;;;;;5.84;100.00;99023.89;109316;1253;58167;-60
2023/11/29 09:31:00;;;;;;;4.10;2.10;;;;;;;5.89;100.00;99024.57;109349;1253;61408;-56
2023/11/29 09:33:29;;;;;;;4.10;2.20;;;;;;;5.92;100.00;99017.48;109323;1254;73915;-56
2023/11/29 09:35:57;;;;;;;4.10;2.00;;;;;;;5.88;100.00;99013.46;109395;1253;66242;-56
2023/11/29 09:38:25;;;;;;;6.40;3.50;;;;;;;5.74;100.00;99011.69;109303;1253;75159;-61
2023/11/29 09:40:54;;;;;;;6.30;3.20;;;;;;;5.58;100.00;99004.20;109334;1254;62260;-56
2023/11/29 09:43:22;;;;;;;4.60;1.70;;;;;;;5.42;100.00;98994.54;109381;1252;62529;-58
2023/11/29 09:45:50;;;;;;;4.80;2.80;;;;;;;5.30;100.00;98999.40;109190;1257;73903;-59
2023/11/29 09:48:17;;;;;;;3.90;1.40;;;;;;;5.19;100.00;98997.83;109281;1259;66982;-62
2023/11/29 09:50:45;;;;;;;4.60;1.60;;;;;;;5.08;100.00;98990.64;109174;1253;73531;-64
2023/11/29 09:53:13;;;;;;;5.00;1.70;;;;;;;5.00;100.00;98999.64;109291;1254;62569;-68
2023/11/29 09:55:40;;;;;;;4.00;1.80;;;;;;;4.94;100.00;98987.83;109297;1253;60088;-68
2023/11/29 09:58:10;;;;;;;3.00;1.20;;;;;;;4.84;100.00;98972.76;109224;1253;73951;-67
2023/11/29 10:00:37;;;;;;;3.10;1.00;;;;;;;4.81;100.00;98975.18;109293;1253;65913;-66
2023/11/29 10:03:12;;;;;;;5.00;1.40;;;;;;;4.81;100.00;98960.08;109299;1254;72080;-66
2023/11/29 10:05:44;;;;;;;4.40;2.10;;;;;;;4.78;100.00;98957.78;109192;1253;60204;-66
2023/11/29 10:08:16;;;;;;;;;;;;;;;4.75;100.00;98953.73;109405;1255;59173;-68
2023/11/29 10:10:44;;;;;;;5.40;1.90;;;;;;;4.70;100.00;98925.70;109309;1254;73022;-65
2023/11/29 10:13:15;;;;;;;3.90;1.40;;;;;;;4.64;100.00;98929.52;109339;1254;67127;-66
2023/11/29 10:15:47;;;;;;;3.60;1.60;;;;;;;4.60;100.00;98929.86;109296;1254;73539;-67
2023/11/29 10:18:16;;;;;;;5.90;1.50;;;;;;;4.59;100.00;98923.56;109297;1254;59738;-66
2023/11/29 10:20:49;;;;;;;5.50;1.40;;;;;;;4.54;100.00;98920.31;109187;1259;62015;-66
2023/11/29 10:23:33;;;;;;;3.50;1.30;;;;;;;4.52;100.00;98921.20;109222;1253;74017;-63
2023/11/29 10:26:01;;;;;;;2.60;0.90;;;;;;;4.52;100.00;98921.88;109276;1257;67787;-64
2023/11/29 10:28:29;;;;;;;4.40;1.70;;;;;;;4.52;100.00;98914.57;109291;1253;72602;-62
2023/11/29 10:30:56;;;;;;;5.90;1.60;;;;;;;4.51;100.00;98919.40;109296;1253;61158;-62
2023/11/29 10:33:24;;;;;;;4.40;1.60;;;;;;;4.53;100.00;98917.88;109085;1252;60857;-62
2023/11/29 10:35:53;;;;;;;5.10;1.50;;;;;;;4.53;100.00;98937.05;109159;1254;75995;-66
2023/11/29 10:38:21;;;;;;;3.00;1.40;;;;;;;4.52;100.00;98915.23;109223;1257;65681;-64
2023/11/29 10:40:49;;;;;;;3.40;1.60;;;;;;;4.51;100.00;98928.54;109246;1253;74977;-65
2023/11/29 10:43:23;;;;;;;4.90;1.50;;;;;;;4.50;100.00;98931.57;109280;1253;61896;-65
2023/11/29 10:45:54;;;;;;;3.70;1.40;;;;;;;4.49;100.00;98922.46;109235;1254;60150;-66
2023/11/29 10:48:23;;;;;;;4.50;1.60;;;;;;;4.48;100.00;98922.50;109297;1254;74985;-64
2023/11/29 10:50:52;;;;;;;3.70;1.50;;;;;;;4.47;100.00;98915.25;109248;1254;65639;-64
2023/11/29 10:53:20;;;;;;;3.20;1.20;;;;;;;4.46;100.00;98922.65;109104;1253;74911;-65
2023/11/29 10:55:48;;;;;;;5.20;2.10;;;;;;;4.48;100.00;98920.12;109225;1253;63149;-66
2023/11/29 10:58:20;;;;;;;4.10;1.50;;;;;;;4.51;100.00;98914.59;109314;1253;61110;-66
2023/11/29 11:00:48;;;;;;;3.90;1.50;;;;;;;4.54;100.00;98908.89;109318;1253;76624;-65
2023/11/29 11:03:39;;;;;;;3.00;1.40;;;;;;;4.58;100.00;98903.36;109322;1253;68963;-65
2023/11/29 11:06:22;;;;;;;3.50;1.40;;;;;;;4.55;100.00;98893.66;109294;1254;72776;-65
2023/11/29 11:08:50;;;;;;;5.00;1.20;;;;;;;4.58;100.00;98891.65;109273;1253;63015;-66
2023/11/29 11:11:44;;;;;;;3.70;1.90;;;;;;;4.57;100.00;98895.46;109223;1253;62618;-66
2023/11/29 11:14:14;;;;;;;2.40;1.00;;;;;;;4.55;100.00;98898.98;109317;1253;76041;-66
2023/11/29 11:17:02;;;;;;;3.30;1.10;;;;;;;4.56;100.00;98903.27;109308;1253;66934;-66
2023/11/29 11:19:33;;;;;;;4.30;1.80;;;;;;;4.56;100.00;98901.97;109305;1254;75343;-66
2023/11/29 11:22:02;;;;;;;5.10;1.30;;;;;;;4.62;100.00;98895.61;109202;1254;60895;-66
2023/11/29 11:25:00;;;;;;;6.60;1.70;;;;;;;4.66;100.00;98893.34;109039;1254;211197;-65
2023/11/29 11:27:31;;;;;;;3.20;1.20;;;;;;;4.67;100.00;98889.76;109271;1253;73749;-66
2023/11/29 11:30:14;;;;;;;3.20;1.00;;;;;;;4.69;100.00;98882.67;109307;1253;69369;-66